createdAt,value
2022-08-17T00:03:07.096Z,8.7
2022-08-17T00:08:42.298Z,8.5
2022-08-17T00:15:23.661Z,8.4
2022-08-17T00:20:58.726Z,8.5
2022-08-17T00:26:43.644Z,8.4
2022-08-17T00:33:14.543Z,8.5
2022-08-17T00:37:43.692Z,8.5
2022-08-17T00:43:18.777Z,8.6
2022-08-17T00:53:22.673Z,8.7
2022-08-17T01:01:10.921Z,8.8
2022-08-17T01:12:20.891Z,8.6
2022-08-17T01:17:55.913Z,8.6
2022-08-17T01:23:31.084Z,8.4
2022-08-17T01:29:05.985Z,8.3
2022-08-17T01:34:43.526Z,8.4
2022-08-17T01:40:15.985Z,8.4
2022-08-17T01:46:02.789Z,8.4
2022-08-17T01:51:25.975Z,8.5
2022-08-17T01:57:01.098Z,8.6
2022-08-17T02:02:35.968Z,8.6
2022-08-17T02:08:19.796Z,8.6
2022-08-17T02:13:45.937Z,8.6
2022-08-17T02:19:21.049Z,8.6
2022-08-17T02:24:59.732Z,8.6
2022-08-17T02:31:01.156Z,8.6
2022-08-17T02:36:05.987Z,8.5
2022-08-17T02:41:40.948Z,8.5
2022-08-17T02:47:16.576Z,8.6
2022-08-17T02:53:01.916Z,8.6
2022-08-17T02:58:35.067Z,8.6
2022-08-17T03:04:01.078Z,8.6
2022-08-17T03:09:36.018Z,8.6
2022-08-17T03:15:11.578Z,8.6
2022-08-17T03:21:55.381Z,8.5
2022-08-17T03:27:27.584Z,8.4
2022-08-17T03:33:02.620Z,8.3
2022-08-17T03:38:39.117Z,8.3
2022-08-17T03:44:12.683Z,8.4
2022-08-17T03:49:47.666Z,8.5
2022-08-17T03:55:22.645Z,8.6
2022-08-17T04:00:57.828Z,8.6
2022-08-17T04:06:32.709Z,8.7
2022-08-17T04:12:07.719Z,8.7
2022-08-17T04:17:43.597Z,8.8
2022-08-17T04:23:17.952Z,8.8
2022-08-17T04:28:52.778Z,8.8
2022-08-17T04:34:27.842Z,8.9
2022-08-17T04:40:04.288Z,8.9
2022-08-17T04:45:38.821Z,8.9
2022-08-17T04:51:12.786Z,8.9
2022-08-17T04:56:47.728Z,9
2022-08-17T05:02:22.786Z,9
2022-08-17T05:07:57.713Z,9.1
2022-08-17T05:13:33.288Z,9.2
2022-08-17T05:19:09.714Z,9.2
2022-08-17T05:25:50.443Z,9.2
2022-08-17T05:31:24.891Z,9.3
2022-08-17T05:36:59.944Z,9.3
2022-08-17T05:42:35.427Z,9.4
2022-08-17T05:48:09.909Z,9.5
2022-08-17T05:53:44.897Z,9.5
2022-08-17T05:59:20.218Z,9.7
2022-08-17T06:05:10.118Z,9.7
2022-08-17T06:10:29.941Z,9.7
2022-08-17T06:16:05.099Z,9.9
2022-08-17T06:21:40.491Z,9.9
2022-08-17T06:27:15.035Z,10.1
2022-08-17T06:32:50.460Z,10.2
2022-08-17T06:38:37.447Z,10.3
2022-08-17T06:44:00.055Z,10.4
2022-08-17T06:49:35.032Z,10.5
2022-08-17T06:55:10.118Z,10.6
2022-08-17T07:00:45.076Z,10.7
2022-08-17T07:06:20.018Z,10.7
2022-08-17T07:11:55.573Z,10.8
2022-08-17T07:18:36.635Z,10.9
2022-08-17T07:24:11.662Z,10.9
2022-08-17T07:29:46.614Z,11
2022-08-17T07:35:22.215Z,11
2022-08-17T07:40:56.668Z,11.1
2022-08-17T07:46:32.154Z,11.1
2022-08-17T07:52:48.423Z,11.2
2022-08-17T07:57:41.718Z,11.3
2022-08-17T08:03:16.717Z,11.4
2022-08-17T08:08:51.672Z,11.6
2022-08-17T08:14:28.580Z,11.8
2022-08-17T08:20:01.726Z,11.9
2022-08-17T08:25:36.709Z,12
2022-08-17T08:31:11.713Z,11.9
2022-08-17T08:36:57.082Z,11.9
2022-08-17T08:42:21.761Z,11.9
2022-08-17T08:47:56.755Z,12
2022-08-17T08:53:31.789Z,12.6
2022-08-17T08:59:06.857Z,14.1
2022-08-17T09:05:12.502Z,15.2
2022-08-17T09:10:17.959Z,15.7
2022-08-17T09:15:51.840Z,16.4
2022-08-17T09:21:26.785Z,16.3
2022-08-17T09:27:01.790Z,16.3
2022-08-17T09:32:36.873Z,16.7
2022-08-17T09:38:12.353Z,16.1
2022-08-17T09:43:46.877Z,16.6
2022-08-17T09:49:25.147Z,16.9
2022-08-17T09:54:56.966Z,16.9
2022-08-17T10:00:31.838Z,16.9
2022-08-17T10:07:13.446Z,16.9
2022-08-17T10:12:48.986Z,17.2
2022-08-17T10:18:23.452Z,17.3
2022-08-17T10:23:58.570Z,17.4
2022-08-17T10:29:46.194Z,17.6
2022-08-17T10:35:08.485Z,17.6
2022-08-17T10:40:43.487Z,17.7
2022-08-17T10:46:30.198Z,17.5
2022-08-17T10:51:53.479Z,17.5
2022-08-17T10:57:28.496Z,17.4
2022-08-17T11:03:03.535Z,17.4
2022-08-17T11:08:38.505Z,17.5
2022-08-17T11:14:16.485Z,17.1
2022-08-17T11:19:48.533Z,17.3
2022-08-17T11:25:23.686Z,17.1
2022-08-17T11:32:05.678Z,16.9
2022-08-17T11:37:40.649Z,17
2022-08-17T11:43:15.656Z,17
2022-08-17T11:48:50.758Z,16.7
2022-08-17T11:55:36.610Z,16.7
2022-08-17T12:01:07.864Z,17
2022-08-17T12:06:42.830Z,16.9
2022-08-17T12:12:17.954Z,16.7
2022-08-17T12:17:53.209Z,16.7
2022-08-17T12:23:27.785Z,17.1
2022-08-17T12:29:05.469Z,17.3
2022-08-17T12:36:51.538Z,17.1
2022-08-17T12:42:26.531Z,17.1
2022-08-17T12:48:01.566Z,17.1
2022-08-17T12:53:37.613Z,17.5
2022-08-17T12:59:11.591Z,17.5
2022-08-17T13:04:46.544Z,17.3
2022-08-17T13:11:28.689Z,17.4
2022-08-17T13:18:10.812Z,17.5
2022-08-17T13:23:45.805Z,17.6
2022-08-17T13:29:21.624Z,17.4
2022-08-17T13:35:14.106Z,17.4
2022-08-17T13:40:30.358Z,17.5
2022-08-17T13:46:05.432Z,17.4
2022-08-17T13:51:40.593Z,17.3
2022-08-17T13:57:15.839Z,17.3
2022-08-17T14:02:50.391Z,17.2
2022-08-17T14:08:25.378Z,17.2
2022-08-17T14:14:02.739Z,17.3
2022-08-17T14:19:35.703Z,17.3
2022-08-17T14:25:10.860Z,17.1
2022-08-17T14:30:46.265Z,17
2022-08-17T14:36:20.568Z,17.1
2022-08-17T14:43:02.488Z,17
2022-08-17T14:48:37.514Z,16.9
2022-08-17T14:54:28.755Z,16.8
2022-08-17T14:59:47.523Z,16.8
2022-08-17T15:05:22.553Z,16.6
2022-08-17T15:10:57.560Z,16.6
2022-08-17T15:16:32.630Z,16.4
2022-08-17T15:22:07.548Z,16.3
2022-08-17T15:27:42.619Z,16
2022-08-17T15:33:17.586Z,15.9
2022-08-17T15:38:53.770Z,15.8
2022-08-17T15:44:32.682Z,15.7
2022-08-17T15:50:02.689Z,15.6
2022-08-17T15:55:37.731Z,15.6
2022-08-17T16:01:16.570Z,15.5
2022-08-17T16:07:54.660Z,15.3
2022-08-17T16:13:29.707Z,15.2
2022-08-17T16:19:04.691Z,15
2022-08-17T16:24:39.208Z,14.9
2022-08-17T16:30:17.340Z,14.9
2022-08-17T16:35:49.236Z,14.8
2022-08-17T16:41:24.183Z,14.8
2022-08-17T16:46:59.243Z,14.7
2022-08-17T16:52:34.259Z,14.6
2022-08-17T16:58:09.273Z,14.6
2022-08-17T17:03:44.220Z,14.6
2022-08-17T17:09:19.348Z,14.7
2022-08-17T17:14:54.288Z,14.7
2022-08-17T17:20:29.250Z,14.7
2022-08-17T17:26:04.372Z,14.7
2022-08-17T17:31:39.383Z,14.8
2022-08-17T17:37:14.311Z,14.7
2022-08-17T17:42:52.390Z,14.7
2022-08-17T17:48:24.289Z,14.5
2022-08-17T17:53:59.373Z,14.3
2022-08-17T17:59:34.331Z,14.2
2022-08-17T18:05:09.277Z,14
2022-08-17T18:10:44.361Z,13.9
2022-08-17T18:16:19.342Z,13.7
2022-08-17T18:21:54.414Z,13.6
2022-08-17T18:27:29.312Z,13.4
2022-08-17T18:33:04.333Z,13.4
2022-08-17T18:38:39.332Z,13.3
2022-08-17T18:44:16.637Z,13.3
2022-08-17T18:49:49.366Z,13.2
2022-08-17T18:55:24.313Z,13.2
2022-08-17T19:00:59.281Z,13.1
2022-08-17T19:06:34.383Z,13.1
2022-08-17T19:12:09.346Z,13.1
2022-08-17T19:17:44.375Z,13.2
2022-08-17T19:23:19.304Z,13.2
2022-08-17T19:30:05.535Z,13.2
2022-08-17T19:35:36.511Z,13.3
2022-08-17T19:41:11.535Z,13.2
2022-08-17T19:46:48.724Z,13.1
2022-08-17T19:52:21.545Z,13
2022-08-17T19:57:56.578Z,12.9
2022-08-17T20:03:31.584Z,12.9
2022-08-17T20:09:08.635Z,12.8
2022-08-17T20:14:41.683Z,12.7
2022-08-17T20:20:19.543Z,12.7
2022-08-17T20:25:51.802Z,12.6
2022-08-17T20:32:33.193Z,12.6
2022-08-17T20:38:08.235Z,12.6
2022-08-17T20:43:43.147Z,12.6
2022-08-17T20:49:18.232Z,12.6
2022-08-17T20:54:53.195Z,12.5
2022-08-17T21:00:28.169Z,12.5
2022-08-17T21:06:03.590Z,12.4
2022-08-17T21:11:56.737Z,12.4
2022-08-17T21:17:13.189Z,12.4
2022-08-17T21:22:48.710Z,12.3
2022-08-17T21:28:23.170Z,12.3
2022-08-17T21:33:58.264Z,12.2
2022-08-17T21:39:33.579Z,12.2
2022-08-17T21:45:08.256Z,12.2
2022-08-17T21:50:43.953Z,12.1
2022-08-17T21:56:18.450Z,12.1
2022-08-17T22:01:53.319Z,12.1
2022-08-17T22:08:35.368Z,12
2022-08-17T22:14:10.330Z,12
2022-08-17T22:19:45.352Z,12
2022-08-17T22:25:20.379Z,12
2022-08-17T22:30:55.435Z,12
2022-08-17T22:36:30.978Z,12
2022-08-17T22:42:05.422Z,12
2022-08-17T22:47:40.374Z,12.1
2022-08-17T22:53:15.454Z,12.1
2022-08-17T22:58:59.124Z,12.1
2022-08-17T23:04:25.437Z,12
2022-08-17T23:10:00.467Z,12
2022-08-17T23:15:35.440Z,11.9
2022-08-17T23:21:10.475Z,11.9
2022-08-17T23:26:45.469Z,11.9
2022-08-17T23:32:20.446Z,11.9
2022-08-17T23:37:55.489Z,11.9
2022-08-17T23:43:30.546Z,11.7
2022-08-17T23:49:05.571Z,11.6
2022-08-17T23:55:47.101Z,11.6
